<?xml version='1.0' encoding='UTF-8'?><gpx version="1.1" creator="JPX - https://github.com/jenetics/jpx" xmlns="http://www.topografix.com/GPX/1/1"><trk><trkseg><trkpt lat="45.9322283" lon="12.738575"><ele>19.857142857142858</ele><time>2026-04-18T14:08:52.433Z</time></trkpt><trkpt lat="45.932195" lon="12.7384867"><ele>19.714285714285715</ele><time>2026-04-18T14:08:57.434Z</time></trkpt><trkpt lat="45.9321467" lon="12.7383983"><ele>19.57142857142857</ele><time>2026-04-18T14:09:01.433Z</time></trkpt><trkpt lat="45.9320983" lon="12.7383267"><ele>19.42857142857143</ele><time>2026-04-18T14:09:04.434Z</time></trkpt><trkpt lat="45.9320483" lon="12.7382517"><ele>19.28571428571429</ele><time>2026-04-18T14:09:07.433Z</time></trkpt><trkpt lat="45.9319717" lon="12.7382317"><ele>19.142857142857142</ele><time>2026-04-18T14:09:11.433Z</time></trkpt><trkpt lat="45.9319067" lon="12.7382817"><ele>19.0</ele><time>2026-04-18T14:09:14.434Z</time></trkpt><trkpt lat="45.931835" lon="12.7383633"><ele>19.0</ele><time>2026-04-18T14:09:17.433Z</time></trkpt><trkpt lat="45.9317867" lon="12.7384233"><ele>19.0</ele><time>2026-04-18T14:09:20.434Z</time></trkpt><trkpt lat="45.9317317" lon="12.7385133"><ele>19.0</ele><time>2026-04-18T14:09:24.433Z</time></trkpt><trkpt lat="45.9316633" lon="12.73859"><ele>19.0</ele><time>2026-04-18T14:09:27.434Z</time></trkpt><trkpt lat="45.931615" lon="12.7386517"><ele>19.0</ele><time>2026-04-18T14:09:29.433Z</time></trkpt><trkpt lat="45.9315667" lon="12.7387117"><ele>19.0</ele><time>2026-04-18T14:09:31.434Z</time></trkpt><trkpt lat="45.9315133" lon="12.738775"><ele>19.0</ele><time>2026-04-18T14:09:33.433Z</time></trkpt><trkpt lat="45.9314583" lon="12.73883"><ele>19.142857142857142</ele><time>2026-04-18T14:09:35.433Z</time></trkpt><trkpt lat="45.9314067" lon="12.7388967"><ele>19.28571428571429</ele><time>2026-04-18T14:09:37.433Z</time></trkpt><trkpt lat="45.9313533" lon="12.7389667"><ele>19.42857142857143</ele><time>2026-04-18T14:09:39.434Z</time></trkpt><trkpt lat="45.9313083" lon="12.73905"><ele>19.57142857142857</ele><time>2026-04-18T14:09:41.434Z</time></trkpt><trkpt lat="45.9312783" lon="12.7391333"><ele>19.714285714285715</ele><time>2026-04-18T14:09:43.434Z</time></trkpt><trkpt lat="45.9312883" lon="12.7392517"><ele>19.857142857142858</ele><time>2026-04-18T14:09:46.434Z</time></trkpt><trkpt lat="45.931265" lon="12.7393517"><ele>20.0</ele><time>2026-04-18T14:09:49.433Z</time></trkpt><trkpt lat="45.9311967" lon="12.739345"><ele>20.0</ele><time>2026-04-18T14:09:52.434Z</time></trkpt><trkpt lat="45.9311333" lon="12.7392883"><ele>20.0</ele><time>2026-04-18T14:09:55.434Z</time></trkpt><trkpt lat="45.9312017" lon="12.7391917"><ele>20.0</ele><time>2026-04-18T14:09:58.433Z</time></trkpt><trkpt lat="45.9312667" lon="12.739125"><ele>20.0</ele><time>2026-04-18T14:10:00.433Z</time></trkpt><trkpt lat="45.9313383" lon="12.739075"><ele>20.0</ele><time>2026-04-18T14:10:02.434Z</time></trkpt><trkpt lat="45.931395" lon="12.7389883"><ele>20.0</ele><time>2026-04-18T14:10:04.434Z</time></trkpt><trkpt lat="45.9314567" lon="12.73891"><ele>20.0</ele><time>2026-04-18T14:10:06.433Z</time></trkpt><trkpt lat="45.931515" lon="12.738835"><ele>20.0</ele><time>2026-04-18T14:10:08.434Z</time></trkpt><trkpt lat="45.9315733" lon="12.7387633"><ele>20.0</ele><time>2026-04-18T14:10:10.434Z</time></trkpt><trkpt lat="45.9316267" lon="12.7386933"><ele>20.0</ele><time>2026-04-18T14:10:12.433Z</time></trkpt><trkpt lat="45.9316833" lon="12.7386333"><ele>20.0</ele><time>2026-04-18T14:10:14.433Z</time></trkpt><trkpt lat="45.9317317" lon="12.73857"><ele>20.0</ele><time>2026-04-18T14:10:16.433Z</time></trkpt><trkpt lat="45.9317983" lon="12.7384767"><ele>20.0</ele><time>2026-04-18T14:10:19.434Z</time></trkpt><trkpt lat="45.9318433" lon="12.73839"><ele>20.0</ele><time>2026-04-18T14:10:22.433Z</time></trkpt><trkpt lat="45.931785" lon="12.738435"><ele>20.0</ele><time>2026-04-18T14:10:26.433Z</time></trkpt><trkpt lat="45.931765" lon="12.738535"><ele>20.0</ele><time>2026-04-18T14:10:29.432Z</time></trkpt><trkpt lat="45.9317167" lon="12.738605"><ele>20.0</ele><time>2026-04-18T14:10:32.432Z</time></trkpt><trkpt lat="45.931775" lon="12.7385383"><ele>20.0</ele><time>2026-04-18T14:10:41.433Z</time></trkpt><trkpt lat="45.9318217" lon="12.7384483"><ele>20.0</ele><time>2026-04-18T14:10:44.433Z</time></trkpt><trkpt lat="45.931885" lon="12.7383783"><ele>19.833333333333336</ele><time>2026-04-18T14:10:47.433Z</time></trkpt><trkpt lat="45.931815" lon="12.738435"><ele>19.666666666666668</ele><time>2026-04-18T14:10:53.433Z</time></trkpt><trkpt lat="45.9317617" lon="12.7385283"><ele>19.5</ele><time>2026-04-18T14:10:56.432Z</time></trkpt><trkpt lat="45.9317733" lon="12.7384283"><ele>19.333333333333332</ele><time>2026-04-18T14:11:01.432Z</time></trkpt><trkpt lat="45.931845" lon="12.7383567"><ele>19.166666666666664</ele><time>2026-04-18T14:11:03.433Z</time></trkpt><trkpt lat="45.93192" lon="12.7382917"><ele>19.0</ele><time>2026-04-18T14:11:05.433Z</time></trkpt><trkpt lat="45.9320017" lon="12.7382433"><ele>19.0</ele><time>2026-04-18T14:11:07.432Z</time></trkpt><trkpt lat="45.9320817" lon="12.7383167"><ele>19.0</ele><time>2026-04-18T14:11:09.432Z</time></trkpt><trkpt lat="45.9321633" lon="12.738425"><ele>19.0</ele><time>2026-04-18T14:11:11.433Z</time></trkpt><trkpt lat="45.9322183" lon="12.7385417"><ele>19.0</ele><time>2026-04-18T14:11:13.432Z</time></trkpt><trkpt lat="45.932255" lon="12.7386533"><ele>19.0</ele><time>2026-04-18T14:11:15.432Z</time></trkpt><trkpt lat="45.9322633" lon="12.7387567"><ele>19.0</ele><time>2026-04-18T14:11:17.433Z</time></trkpt><trkpt lat="45.9322417" lon="12.738845"><ele>19.0</ele><time>2026-04-18T14:11:19.432Z</time></trkpt><trkpt lat="45.9322167" lon="12.7389433"><ele>19.0</ele><time>2026-04-18T14:11:22.432Z</time></trkpt><trkpt lat="45.932265" lon="12.7388767"><ele>19.0</ele><time>2026-04-18T14:11:25.433Z</time></trkpt><trkpt lat="45.932285" lon="12.7387833"><ele>19.0</ele><time>2026-04-18T14:11:27.432Z</time></trkpt><trkpt lat="45.93227" lon="12.7386633"><ele>19.0</ele><time>2026-04-18T14:11:29.433Z</time></trkpt><trkpt lat="45.9322367" lon="12.7385483"><ele>19.0</ele><time>2026-04-18T14:11:31.432Z</time></trkpt><trkpt lat="45.9321833" lon="12.738455"><ele>19.0</ele><time>2026-04-18T14:11:33.433Z</time></trkpt><trkpt lat="45.9321283" lon="12.7383617"><ele>19.0</ele><time>2026-04-18T14:11:35.432Z</time></trkpt><trkpt lat="45.93208" lon="12.7382783"><ele>19.0</ele><time>2026-04-18T14:11:37.432Z</time></trkpt><trkpt lat="45.9320317" lon="12.73821"><ele>19.0</ele><time>2026-04-18T14:11:40.433Z</time></trkpt><trkpt lat="45.9319667" lon="12.7382817"><ele>19.0</ele><time>2026-04-18T14:11:43.433Z</time></trkpt><trkpt lat="45.9318983" lon="12.7383667"><ele>19.0</ele><time>2026-04-18T14:11:46.433Z</time></trkpt><trkpt lat="45.9318333" lon="12.73845"><ele>19.0</ele><time>2026-04-18T14:11:49.433Z</time></trkpt><trkpt lat="45.9317833" lon="12.738505"><ele>19.0</ele><time>2026-04-18T14:11:52.432Z</time></trkpt><trkpt lat="45.9318267" lon="12.73843"><ele>19.0</ele><time>2026-04-18T14:12:00.432Z</time></trkpt><trkpt lat="45.93188" lon="12.7383767"><ele>19.0</ele><time>2026-04-18T14:12:03.432Z</time></trkpt><trkpt lat="45.9319183" lon="12.73829"><ele>19.0</ele><time>2026-04-18T14:12:07.433Z</time></trkpt><trkpt lat="45.931985" lon="12.7382567"><ele>19.0</ele><time>2026-04-18T14:12:10.432Z</time></trkpt><trkpt lat="45.93205" lon="12.7382683"><ele>19.0</ele><time>2026-04-18T14:12:13.433Z</time></trkpt><trkpt lat="45.9321033" lon="12.738345"><ele>19.0</ele><time>2026-04-18T14:12:16.432Z</time></trkpt><trkpt lat="45.9320333" lon="12.7382767"><ele>19.0</ele><time>2026-04-18T14:12:22.433Z</time></trkpt><trkpt lat="45.93195" lon="12.73828"><ele>19.0</ele><time>2026-04-18T14:12:25.432Z</time></trkpt><trkpt lat="45.9318767" lon="12.7383683"><ele>19.0</ele><time>2026-04-18T14:12:28.433Z</time></trkpt><trkpt lat="45.9318083" lon="12.7384583"><ele>19.0</ele><time>2026-04-18T14:12:31.433Z</time></trkpt><trkpt lat="45.9317633" lon="12.7385217"><ele>19.0</ele><time>2026-04-18T14:12:33.432Z</time></trkpt><trkpt lat="45.931705" lon="12.7386067"><ele>20.0</ele><time>2026-04-18T14:12:36.432Z</time></trkpt><trkpt lat="45.93175" lon="12.738535"><ele>19.0</ele><time>2026-04-18T14:12:42.433Z</time></trkpt><trkpt lat="45.9318" lon="12.7384667"><ele>19.0</ele><time>2026-04-18T14:12:46.432Z</time></trkpt><trkpt lat="45.931845" lon="12.7384"><ele>19.0</ele><time>2026-04-18T14:12:50.432Z</time></trkpt><trkpt lat="45.9318917" lon="12.7383267"><ele>19.0</ele><time>2026-04-18T14:12:55.432Z</time></trkpt><trkpt lat="45.931825" lon="12.7384133"><ele>19.0</ele><time>2026-04-18T14:12:59.432Z</time></trkpt><trkpt lat="45.9317783" lon="12.7384967"><ele>19.0</ele><time>2026-04-18T14:13:02.432Z</time></trkpt></trkseg></trk></gpx>